sensor_id;sensor_type;location;lat;lon;timestamp;P1;durP1;ratioP1;P2;durP2;ratioP2
11010;SDS011;5558;42.702;23.178;2022-08-04T00:01:20;3.10;;;2.90;;
11010;SDS011;5558;42.702;23.178;2022-08-04T00:03:55;2.90;;;2.70;;
11010;SDS011;5558;42.702;23.178;2022-08-04T00:06:29;3.43;;;3.13;;
11010;SDS011;5558;42.702;23.178;2022-08-04T00:09:07;2.50;;;2.30;;
11010;SDS011;5558;42.702;23.178;2022-08-04T00:11:40;2.80;;;2.60;;
11010;SDS011;5558;42.702;23.178;2022-08-04T00:14:12;3.07;;;2.87;;
11010;SDS011;5558;42.702;23.178;2022-08-04T00:16:40;3.37;;;3.17;;
11010;SDS011;5558;42.702;23.178;2022-08-04T00:19:09;3.60;;;3.30;;
11010;SDS011;5558;42.702;23.178;2022-08-04T00:21:41;3.00;;;2.80;;
11010;SDS011;5558;42.702;23.178;2022-08-04T00:24:13;3.37;;;3.07;;
11010;SDS011;5558;42.702;23.178;2022-08-04T00:26:42;3.10;;;2.90;;
11010;SDS011;5558;42.702;23.178;2022-08-04T00:29:10;3.20;;;3.00;;
11010;SDS011;5558;42.702;23.178;2022-08-04T00:31:37;3.10;;;2.90;;
11010;SDS011;5558;42.702;23.178;2022-08-04T00:34:08;3.07;;;2.87;;
11010;SDS011;5558;42.702;23.178;2022-08-04T00:36:37;3.07;;;2.80;;
11010;SDS011;5558;42.702;23.178;2022-08-04T00:39:05;2.70;;;2.50;;
11010;SDS011;5558;42.702;23.178;2022-08-04T00:41:34;2.73;;;2.53;;
11010;SDS011;5558;42.702;23.178;2022-08-04T00:44:21;2.83;;;2.33;;
11010;SDS011;5558;42.702;23.178;2022-08-04T00:47:07;2.73;;;2.40;;
11010;SDS011;5558;42.702;23.178;2022-08-04T00:50:04;2.57;;;2.37;;
11010;SDS011;5558;42.702;23.178;2022-08-04T00:55:30;3.13;;;2.50;;
11010;SDS011;5558;42.702;23.178;2022-08-04T00:58:21;2.87;;;2.67;;
11010;SDS011;5558;42.702;23.178;2022-08-04T01:00:58;2.90;;;2.70;;
11010;SDS011;5558;42.702;23.178;2022-08-04T01:03:33;2.87;;;2.57;;
11010;SDS011;5558;42.702;23.178;2022-08-04T01:06:15;3.03;;;2.60;;
11010;SDS011;5558;42.702;23.178;2022-08-04T01:08:54;2.90;;;2.60;;
11010;SDS011;5558;42.702;23.178;2022-08-04T01:11:32;2.47;;;2.33;;
11010;SDS011;5558;42.702;23.178;2022-08-04T01:14:23;2.60;;;2.40;;
11010;SDS011;5558;42.702;23.178;2022-08-04T01:17:04;2.80;;;2.40;;
11010;SDS011;5558;42.702;23.178;2022-08-04T01:19:47;2.50;;;2.30;;
11010;SDS011;5558;42.702;23.178;2022-08-04T01:22:36;2.30;;;2.20;;
11010;SDS011;5558;42.702;23.178;2022-08-04T01:25:28;2.60;;;2.40;;
11010;SDS011;5558;42.702;23.178;2022-08-04T01:28:28;2.40;;;2.20;;
11010;SDS011;5558;42.702;23.178;2022-08-04T01:31:05;2.57;;;2.37;;
11010;SDS011;5558;42.702;23.178;2022-08-04T01:33:41;2.40;;;2.20;;
11010;SDS011;5558;42.702;23.178;2022-08-04T01:36:12;2.30;;;2.20;;
11010;SDS011;5558;42.702;23.178;2022-08-04T01:38:39;2.70;;;2.50;;
11010;SDS011;5558;42.702;23.178;2022-08-04T01:41:08;2.20;;;2.10;;
11010;SDS011;5558;42.702;23.178;2022-08-04T01:43:40;2.73;;;2.53;;
11010;SDS011;5558;42.702;23.178;2022-08-04T01:46:10;2.80;;;2.50;;
11010;SDS011;5558;42.702;23.178;2022-08-04T01:48:38;2.60;;;2.40;;
11010;SDS011;5558;42.702;23.178;2022-08-04T01:51:08;2.70;;;2.50;;
11010;SDS011;5558;42.702;23.178;2022-08-04T01:53:35;2.50;;;2.30;;
11010;SDS011;5558;42.702;23.178;2022-08-04T01:56:04;2.70;;;2.50;;
11010;SDS011;5558;42.702;23.178;2022-08-04T01:58:33;2.63;;;2.40;;
11010;SDS011;5558;42.702;23.178;2022-08-04T02:01:01;3.17;;;2.53;;
11010;SDS011;5558;42.702;23.178;2022-08-04T02:03:31;2.83;;;2.63;;
11010;SDS011;5558;42.702;23.178;2022-08-04T02:06:03;2.53;;;2.33;;
11010;SDS011;5558;42.702;23.178;2022-08-04T02:08:40;2.60;;;2.40;;
11010;SDS011;5558;42.702;23.178;2022-08-04T02:11:15;2.70;;;2.50;;
11010;SDS011;5558;42.702;23.178;2022-08-04T02:13:47;2.90;;;2.70;;
11010;SDS011;5558;42.702;23.178;2022-08-04T02:16:23;2.60;;;2.40;;
11010;SDS011;5558;42.702;23.178;2022-08-04T02:19:00;3.13;;;2.60;;
11010;SDS011;5558;42.702;23.178;2022-08-04T02:21:30;2.90;;;2.70;;
11010;SDS011;5558;42.702;23.178;2022-08-04T02:23:59;3.00;;;2.80;;
11010;SDS011;5558;42.702;23.178;2022-08-04T02:26:31;2.80;;;2.60;;
11010;SDS011;5558;42.702;23.178;2022-08-04T02:29:03;3.17;;;2.87;;
11010;SDS011;5558;42.702;23.178;2022-08-04T02:31:40;2.93;;;2.73;;
11010;SDS011;5558;42.702;23.178;2022-08-04T02:34:15;2.80;;;2.60;;
11010;SDS011;5558;42.702;23.178;2022-08-04T02:36:47;3.10;;;2.90;;
11010;SDS011;5558;42.702;23.178;2022-08-04T02:39:18;3.23;;;2.80;;
11010;SDS011;5558;42.702;23.178;2022-08-04T02:41:46;2.90;;;2.70;;
11010;SDS011;5558;42.702;23.178;2022-08-04T02:44:16;2.87;;;2.67;;
11010;SDS011;5558;42.702;23.178;2022-08-04T02:46:46;3.20;;;2.97;;
11010;SDS011;5558;42.702;23.178;2022-08-04T02:49:17;2.97;;;2.77;;
11010;SDS011;5558;42.702;23.178;2022-08-04T02:51:45;3.83;;;2.70;;
11010;SDS011;5558;42.702;23.178;2022-08-04T02:54:16;2.80;;;2.53;;
11010;SDS011;5558;42.702;23.178;2022-08-04T02:56:45;3.20;;;2.90;;
11010;SDS011;5558;42.702;23.178;2022-08-04T02:59:12;2.80;;;2.60;;
11010;SDS011;5558;42.702;23.178;2022-08-04T03:01:40;3.10;;;2.80;;
11010;SDS011;5558;42.702;23.178;2022-08-04T03:04:15;3.40;;;3.10;;
11010;SDS011;5558;42.702;23.178;2022-08-04T03:10:09;3.80;;;3.50;;
11010;SDS011;5558;42.702;23.178;2022-08-04T03:12:56;4.00;;;3.70;;
11010;SDS011;5558;42.702;23.178;2022-08-04T03:15:43;3.90;;;3.60;;
11010;SDS011;5558;42.702;23.178;2022-08-04T03:21:37;3.93;;;3.30;;
11010;SDS011;5558;42.702;23.178;2022-08-04T03:24:29;2.97;;;2.77;;
11010;SDS011;5558;42.702;23.178;2022-08-04T03:30:20;3.57;;;3.27;;
11010;SDS011;5558;42.702;23.178;2022-08-04T03:33:13;2.90;;;2.70;;
11010;SDS011;5558;42.702;23.178;2022-08-04T03:36:13;2.90;;;2.47;;
11010;SDS011;5558;42.702;23.178;2022-08-04T03:39:06;2.77;;;2.57;;
11010;SDS011;5558;42.702;23.178;2022-08-04T03:42:05;3.17;;;2.87;;
11010;SDS011;5558;42.702;23.178;2022-08-04T03:44:51;2.90;;;2.70;;
11010;SDS011;5558;42.702;23.178;2022-08-04T03:47:44;3.10;;;2.90;;
11010;SDS011;5558;42.702;23.178;2022-08-04T03:50:41;3.40;;;3.10;;
11010;SDS011;5558;42.702;23.178;2022-08-04T03:53:51;3.00;;;2.80;;
11010;SDS011;5558;42.702;23.178;2022-08-04T03:56:53;3.77;;;3.23;;
11010;SDS011;5558;42.702;23.178;2022-08-04T03:59:48;3.60;;;3.30;;
11010;SDS011;5558;42.702;23.178;2022-08-04T04:02:36;3.83;;;3.47;;
11010;SDS011;5558;42.702;23.178;2022-08-04T04:05:38;3.90;;;3.60;;
11010;SDS011;5558;42.702;23.178;2022-08-04T04:08:36;3.53;;;3.23;;
11010;SDS011;5558;42.702;23.178;2022-08-04T04:11:35;4.30;;;4.00;;
11010;SDS011;5558;42.702;23.178;2022-08-04T04:14:17;4.00;;;3.70;;
11010;SDS011;5558;42.702;23.178;2022-08-04T04:17:03;3.60;;;3.30;;
11010;SDS011;5558;42.702;23.178;2022-08-04T04:22:49;3.43;;;3.13;;
11010;SDS011;5558;42.702;23.178;2022-08-04T04:25:29;3.40;;;3.10;;
11010;SDS011;5558;42.702;23.178;2022-08-04T04:28:16;3.50;;;3.00;;
11010;SDS011;5558;42.702;23.178;2022-08-04T04:31:01;3.60;;;3.30;;
11010;SDS011;5558;42.702;23.178;2022-08-04T04:33:42;4.20;;;3.30;;
11010;SDS011;5558;42.702;23.178;2022-08-04T04:36:23;3.47;;;3.17;;
11010;SDS011;5558;42.702;23.178;2022-08-04T04:39:00;3.83;;;3.50;;
11010;SDS011;5558;42.702;23.178;2022-08-04T04:41:35;3.53;;;3.23;;
11010;SDS011;5558;42.702;23.178;2022-08-04T04:47:33;2.77;;;2.57;;
11010;SDS011;5558;42.702;23.178;2022-08-04T04:50:08;2.67;;;2.37;;
11010;SDS011;5558;42.702;23.178;2022-08-04T04:52:42;2.57;;;2.37;;
11010;SDS011;5558;42.702;23.178;2022-08-04T04:55:16;2.70;;;2.50;;
11010;SDS011;5558;42.702;23.178;2022-08-04T04:57:47;3.27;;;2.40;;
11010;SDS011;5558;42.702;23.178;2022-08-04T05:00:17;2.90;;;2.60;;
11010;SDS011;5558;42.702;23.178;2022-08-04T05:05:51;2.90;;;2.70;;
11010;SDS011;5558;42.702;23.178;2022-08-04T05:08:29;3.13;;;2.60;;
11010;SDS011;5558;42.702;23.178;2022-08-04T05:11:31;4.50;;;3.10;;
11010;SDS011;5558;42.702;23.178;2022-08-04T05:14:23;3.10;;;2.80;;
11010;SDS011;5558;42.702;23.178;2022-08-04T05:16:54;3.67;;;2.97;;
11010;SDS011;5558;42.702;23.178;2022-08-04T05:19:30;4.13;;;3.53;;
11010;SDS011;5558;42.702;23.178;2022-08-04T05:22:05;3.60;;;3.30;;
11010;SDS011;5558;42.702;23.178;2022-08-04T05:24:36;3.97;;;3.63;;
11010;SDS011;5558;42.702;23.178;2022-08-04T05:27:07;3.50;;;3.20;;
11010;SDS011;5558;42.702;23.178;2022-08-04T05:29:41;3.47;;;2.90;;
11010;SDS011;5558;42.702;23.178;2022-08-04T05:32:13;3.33;;;3.03;;
11010;SDS011;5558;42.702;23.178;2022-08-04T05:34:43;3.67;;;3.13;;
11010;SDS011;5558;42.702;23.178;2022-08-04T05:37:15;3.60;;;3.30;;
11010;SDS011;5558;42.702;23.178;2022-08-04T05:39:45;3.20;;;3.00;;
11010;SDS011;5558;42.702;23.178;2022-08-04T05:42:14;3.30;;;3.00;;
11010;SDS011;5558;42.702;23.178;2022-08-04T05:44:41;3.40;;;2.70;;
11010;SDS011;5558;42.702;23.178;2022-08-04T05:47:09;3.27;;;3.00;;
11010;SDS011;5558;42.702;23.178;2022-08-04T05:49:38;3.10;;;2.80;;
11010;SDS011;5558;42.702;23.178;2022-08-04T05:52:08;3.70;;;3.40;;
11010;SDS011;5558;42.702;23.178;2022-08-04T05:54:36;3.33;;;3.10;;
11010;SDS011;5558;42.702;23.178;2022-08-04T05:57:04;3.93;;;3.53;;
11010;SDS011;5558;42.702;23.178;2022-08-04T05:59:35;4.00;;;3.60;;
11010;SDS011;5558;42.702;23.178;2022-08-04T06:02:05;4.20;;;3.80;;
11010;SDS011;5558;42.702;23.178;2022-08-04T06:04:34;6.63;;;3.67;;
11010;SDS011;5558;42.702;23.178;2022-08-04T06:07:04;5.07;;;3.67;;
11010;SDS011;5558;42.702;23.178;2022-08-04T06:09:34;3.80;;;3.50;;
11010;SDS011;5558;42.702;23.178;2022-08-04T06:12:01;4.50;;;4.10;;
11010;SDS011;5558;42.702;23.178;2022-08-04T06:14:36;4.17;;;3.87;;
11010;SDS011;5558;42.702;23.178;2022-08-04T06:17:06;5.10;;;4.70;;
11010;SDS011;5558;42.702;23.178;2022-08-04T06:19:34;4.80;;;4.40;;
11010;SDS011;5558;42.702;23.178;2022-08-04T06:22:04;4.80;;;4.40;;
11010;SDS011;5558;42.702;23.178;2022-08-04T06:24:36;6.63;;;5.07;;
11010;SDS011;5558;42.702;23.178;2022-08-04T06:27:05;5.90;;;5.30;;
11010;SDS011;5558;42.702;23.178;2022-08-04T06:29:33;6.40;;;4.90;;
11010;SDS011;5558;42.702;23.178;2022-08-04T06:32:04;6.33;;;5.20;;
11010;SDS011;5558;42.702;23.178;2022-08-04T06:34:49;6.17;;;5.20;;
11010;SDS011;5558;42.702;23.178;2022-08-04T06:37:17;6.37;;;5.00;;
11010;SDS011;5558;42.702;23.178;2022-08-04T06:39:47;5.30;;;4.80;;
11010;SDS011;5558;42.702;23.178;2022-08-04T06:42:16;5.03;;;4.63;;
11010;SDS011;5558;42.702;23.178;2022-08-04T06:44:45;6.43;;;5.43;;
11010;SDS011;5558;42.702;23.178;2022-08-04T06:47:14;5.30;;;4.90;;
11010;SDS011;5558;42.702;23.178;2022-08-04T06:49:43;5.23;;;4.70;;
11010;SDS011;5558;42.702;23.178;2022-08-04T06:52:11;5.27;;;4.30;;
11010;SDS011;5558;42.702;23.178;2022-08-04T06:54:41;4.73;;;4.23;;
11010;SDS011;5558;42.702;23.178;2022-08-04T06:57:10;5.83;;;4.10;;
11010;SDS011;5558;42.702;23.178;2022-08-04T06:59:40;4.00;;;3.70;;
11010;SDS011;5558;42.702;23.178;2022-08-04T07:02:10;5.03;;;3.73;;
11010;SDS011;5558;42.702;23.178;2022-08-04T07:04:40;5.33;;;3.97;;
11010;SDS011;5558;42.702;23.178;2022-08-04T07:07:08;4.47;;;3.90;;
11010;SDS011;5558;42.702;23.178;2022-08-04T07:09:35;5.27;;;4.00;;
11010;SDS011;5558;42.702;23.178;2022-08-04T07:12:03;4.50;;;3.80;;
11010;SDS011;5558;42.702;23.178;2022-08-04T07:14:33;4.23;;;3.50;;
11010;SDS011;5558;42.702;23.178;2022-08-04T07:17:01;3.70;;;3.40;;
11010;SDS011;5558;42.702;23.178;2022-08-04T07:19:29;4.00;;;3.63;;
11010;SDS011;5558;42.702;23.178;2022-08-04T07:21:56;5.00;;;3.53;;
11010;SDS011;5558;42.702;23.178;2022-08-04T07:24:28;3.77;;;3.47;;
11010;SDS011;5558;42.702;23.178;2022-08-04T07:26:55;4.13;;;3.70;;
11010;SDS011;5558;42.702;23.178;2022-08-04T07:29:21;5.53;;;3.70;;
11010;SDS011;5558;42.702;23.178;2022-08-04T07:31:50;4.43;;;3.50;;
11010;SDS011;5558;42.702;23.178;2022-08-04T07:34:18;3.80;;;3.40;;
11010;SDS011;5558;42.702;23.178;2022-08-04T07:36:46;5.77;;;3.50;;
11010;SDS011;5558;42.702;23.178;2022-08-04T07:39:15;4.53;;;3.30;;
11010;SDS011;5558;42.702;23.178;2022-08-04T07:41:41;4.10;;;3.57;;
11010;SDS011;5558;42.702;23.178;2022-08-04T07:44:09;4.27;;;3.70;;
11010;SDS011;5558;42.702;23.178;2022-08-04T07:46:38;3.03;;;2.73;;
11010;SDS011;5558;42.702;23.178;2022-08-04T07:49:07;3.37;;;3.07;;
11010;SDS011;5558;42.702;23.178;2022-08-04T07:51:35;3.20;;;3.00;;
11010;SDS011;5558;42.702;23.178;2022-08-04T07:54:04;3.47;;;3.17;;
11010;SDS011;5558;42.702;23.178;2022-08-04T07:56:34;3.50;;;3.20;;
11010;SDS011;5558;42.702;23.178;2022-08-04T07:59:02;3.33;;;3.03;;
11010;SDS011;5558;42.702;23.178;2022-08-04T08:01:31;3.57;;;3.27;;
11010;SDS011;5558;42.702;23.178;2022-08-04T08:03:59;3.33;;;3.03;;
11010;SDS011;5558;42.702;23.178;2022-08-04T08:06:30;3.47;;;2.97;;
11010;SDS011;5558;42.702;23.178;2022-08-04T08:08:58;4.00;;;3.10;;
11010;SDS011;5558;42.702;23.178;2022-08-04T08:11:26;3.77;;;3.00;;
11010;SDS011;5558;42.702;23.178;2022-08-04T08:13:54;3.70;;;2.83;;
11010;SDS011;5558;42.702;23.178;2022-08-04T08:16:21;3.93;;;2.87;;
11010;SDS011;5558;42.702;23.178;2022-08-04T08:18:49;3.40;;;3.10;;
11010;SDS011;5558;42.702;23.178;2022-08-04T08:21:18;6.17;;;3.20;;
11010;SDS011;5558;42.702;23.178;2022-08-04T08:23:46;3.50;;;3.20;;
11010;SDS011;5558;42.702;23.178;2022-08-04T08:26:14;3.63;;;2.90;;
11010;SDS011;5558;42.702;23.178;2022-08-04T08:28:41;3.03;;;2.70;;
11010;SDS011;5558;42.702;23.178;2022-08-04T08:31:08;2.90;;;2.70;;
11010;SDS011;5558;42.702;23.178;2022-08-04T08:33:35;2.90;;;2.60;;
11010;SDS011;5558;42.702;23.178;2022-08-04T08:36:03;3.00;;;2.70;;
11010;SDS011;5558;42.702;23.178;2022-08-04T08:38:41;3.13;;;2.77;;
11010;SDS011;5558;42.702;23.178;2022-08-04T08:41:27;2.93;;;2.60;;
11010;SDS011;5558;42.702;23.178;2022-08-04T08:47:08;2.70;;;2.50;;
11010;SDS011;5558;42.702;23.178;2022-08-04T08:49:59;2.83;;;2.63;;
11010;SDS011;5558;42.702;23.178;2022-08-04T08:55:39;3.10;;;2.47;;
11010;SDS011;5558;42.702;23.178;2022-08-04T08:58:20;4.03;;;2.70;;
11010;SDS011;5558;42.702;23.178;2022-08-04T09:01:01;3.10;;;2.60;;
11010;SDS011;5558;42.702;23.178;2022-08-04T09:03:45;3.57;;;2.27;;
11010;SDS011;5558;42.702;23.178;2022-08-04T09:06:46;2.27;;;2.07;;
11010;SDS011;5558;42.702;23.178;2022-08-04T09:12:11;2.17;;;1.87;;
11010;SDS011;5558;42.702;23.178;2022-08-04T09:14:46;2.57;;;1.80;;
11010;SDS011;5558;42.702;23.178;2022-08-04T09:17:21;2.00;;;1.90;;
11010;SDS011;5558;42.702;23.178;2022-08-04T09:19:55;1.97;;;1.83;;
11010;SDS011;5558;42.702;23.178;2022-08-04T09:22:28;1.70;;;1.60;;
11010;SDS011;5558;42.702;23.178;2022-08-04T09:25:06;3.10;;;2.00;;
11010;SDS011;5558;42.702;23.178;2022-08-04T09:27:39;2.10;;;1.90;;
11010;SDS011;5558;42.702;23.178;2022-08-04T09:30:14;1.80;;;1.70;;
11010;SDS011;5558;42.702;23.178;2022-08-04T09:32:46;2.10;;;2.00;;
11010;SDS011;5558;42.702;23.178;2022-08-04T09:35:23;2.27;;;1.80;;
11010;SDS011;5558;42.702;23.178;2022-08-04T09:38:01;2.53;;;1.90;;
11010;SDS011;5558;42.702;23.178;2022-08-04T09:40:38;3.70;;;2.17;;
11010;SDS011;5558;42.702;23.178;2022-08-04T09:43:13;3.43;;;2.10;;
11010;SDS011;5558;42.702;23.178;2022-08-04T09:45:57;6.93;;;2.33;;
11010;SDS011;5558;42.702;23.178;2022-08-04T09:48:38;2.23;;;2.13;;
11010;SDS011;5558;42.702;23.178;2022-08-04T09:51:13;2.40;;;2.20;;
11010;SDS011;5558;42.702;23.178;2022-08-04T09:53:50;3.77;;;2.10;;
11010;SDS011;5558;42.702;23.178;2022-08-04T09:56:25;2.63;;;2.37;;
11010;SDS011;5558;42.702;23.178;2022-08-04T09:59:00;3.50;;;3.07;;
11010;SDS011;5558;42.702;23.178;2022-08-04T10:01:36;3.40;;;2.80;;
11010;SDS011;5558;42.702;23.178;2022-08-04T10:04:07;2.43;;;2.23;;
11010;SDS011;5558;42.702;23.178;2022-08-04T10:09:42;2.77;;;2.30;;
11010;SDS011;5558;42.702;23.178;2022-08-04T10:12:26;2.93;;;2.17;;
11010;SDS011;5558;42.702;23.178;2022-08-04T10:15:00;2.30;;;2.10;;
11010;SDS011;5558;42.702;23.178;2022-08-04T10:17:38;2.40;;;2.00;;
11010;SDS011;5558;42.702;23.178;2022-08-04T10:20:18;2.60;;;2.00;;
11010;SDS011;5558;42.702;23.178;2022-08-04T10:22:51;1.97;;;1.87;;
11010;SDS011;5558;42.702;23.178;2022-08-04T10:25:29;2.20;;;2.00;;
11010;SDS011;5558;42.702;23.178;2022-08-04T10:28:05;1.90;;;1.70;;
11010;SDS011;5558;42.702;23.178;2022-08-04T10:30:38;1.50;;;1.40;;
11010;SDS011;5558;42.702;23.178;2022-08-04T10:33:11;2.70;;;1.80;;
11010;SDS011;5558;42.702;23.178;2022-08-04T10:35:49;2.10;;;1.90;;
11010;SDS011;5558;42.702;23.178;2022-08-04T10:38:19;2.10;;;2.00;;
11010;SDS011;5558;42.702;23.178;2022-08-04T10:40:53;2.20;;;2.00;;
11010;SDS011;5558;42.702;23.178;2022-08-04T10:43:25;1.80;;;1.70;;
11010;SDS011;5558;42.702;23.178;2022-08-04T10:46:06;1.90;;;1.73;;
11010;SDS011;5558;42.702;23.178;2022-08-04T10:48:40;2.53;;;1.77;;
11010;SDS011;5558;42.702;23.178;2022-08-04T10:51:14;1.60;;;1.50;;
11010;SDS011;5558;42.702;23.178;2022-08-04T10:53:50;1.63;;;1.50;;
11010;SDS011;5558;42.702;23.178;2022-08-04T10:56:22;1.70;;;1.47;;
11010;SDS011;5558;42.702;23.178;2022-08-04T10:58:59;2.80;;;1.60;;
11010;SDS011;5558;42.702;23.178;2022-08-04T11:01:30;1.67;;;1.57;;
11010;SDS011;5558;42.702;23.178;2022-08-04T11:04:03;1.70;;;1.60;;
11010;SDS011;5558;42.702;23.178;2022-08-04T11:06:35;1.60;;;1.50;;
11010;SDS011;5558;42.702;23.178;2022-08-04T11:09:03;1.60;;;1.50;;
11010;SDS011;5558;42.702;23.178;2022-08-04T11:11:32;1.57;;;1.50;;
11010;SDS011;5558;42.702;23.178;2022-08-04T11:14:05;1.93;;;1.70;;
11010;SDS011;5558;42.702;23.178;2022-08-04T11:16:38;2.37;;;1.70;;
11010;SDS011;5558;42.702;23.178;2022-08-04T11:19:16;1.80;;;1.70;;
11010;SDS011;5558;42.702;23.178;2022-08-04T11:21:53;1.80;;;1.70;;
11010;SDS011;5558;42.702;23.178;2022-08-04T11:24:24;1.80;;;1.70;;
11010;SDS011;5558;42.702;23.178;2022-08-04T11:27:03;1.80;;;1.70;;
11010;SDS011;5558;42.702;23.178;2022-08-04T11:29:37;4.03;;;2.00;;
11010;SDS011;5558;42.702;23.178;2022-08-04T11:32:07;1.80;;;1.70;;
11010;SDS011;5558;42.702;23.178;2022-08-04T11:34:41;1.60;;;1.50;;
11010;SDS011;5558;42.702;23.178;2022-08-04T11:37:13;2.07;;;1.67;;
11010;SDS011;5558;42.702;23.178;2022-08-04T11:39:45;1.73;;;1.63;;
11010;SDS011;5558;42.702;23.178;2022-08-04T11:42:17;1.90;;;1.80;;
11010;SDS011;5558;42.702;23.178;2022-08-04T11:44:48;2.13;;;1.93;;
11010;SDS011;5558;42.702;23.178;2022-08-04T11:47:20;1.80;;;1.70;;
11010;SDS011;5558;42.702;23.178;2022-08-04T11:49:57;2.03;;;1.60;;
11010;SDS011;5558;42.702;23.178;2022-08-04T11:52:29;1.90;;;1.80;;
11010;SDS011;5558;42.702;23.178;2022-08-04T11:55:02;1.90;;;1.80;;
11010;SDS011;5558;42.702;23.178;2022-08-04T11:57:32;1.90;;;1.80;;
11010;SDS011;5558;42.702;23.178;2022-08-04T11:59:59;1.90;;;1.60;;
11010;SDS011;5558;42.702;23.178;2022-08-04T12:05:24;1.97;;;1.83;;
11010;SDS011;5558;42.702;23.178;2022-08-04T12:07:54;1.80;;;1.70;;
11010;SDS011;5558;42.702;23.178;2022-08-04T12:10:44;4.70;;;1.90;;
11010;SDS011;5558;42.702;23.178;2022-08-04T12:13:19;2.57;;;1.90;;
11010;SDS011;5558;42.702;23.178;2022-08-04T12:15:56;3.23;;;1.90;;
11010;SDS011;5558;42.702;23.178;2022-08-04T12:18:29;1.73;;;1.63;;
11010;SDS011;5558;42.702;23.178;2022-08-04T12:21:06;1.67;;;1.57;;
11010;SDS011;5558;42.702;23.178;2022-08-04T12:23:40;1.80;;;1.70;;
11010;SDS011;5558;42.702;23.178;2022-08-04T12:26:11;2.43;;;1.90;;
11010;SDS011;5558;42.702;23.178;2022-08-04T12:28:42;3.47;;;2.23;;
11010;SDS011;5558;42.702;23.178;2022-08-04T12:31:13;1.80;;;1.70;;
11010;SDS011;5558;42.702;23.178;2022-08-04T12:33:46;1.80;;;1.70;;
11010;SDS011;5558;42.702;23.178;2022-08-04T12:36:21;2.47;;;1.70;;
11010;SDS011;5558;42.702;23.178;2022-08-04T12:38:58;2.10;;;1.87;;
11010;SDS011;5558;42.702;23.178;2022-08-04T12:41:28;1.87;;;1.77;;
11010;SDS011;5558;42.702;23.178;2022-08-04T12:44:05;1.77;;;1.67;;
11010;SDS011;5558;42.702;23.178;2022-08-04T12:46:34;1.70;;;1.60;;
11010;SDS011;5558;42.702;23.178;2022-08-04T12:49:03;2.83;;;1.90;;
11010;SDS011;5558;42.702;23.178;2022-08-04T12:51:36;1.77;;;1.67;;
11010;SDS011;5558;42.702;23.178;2022-08-04T12:54:09;2.10;;;1.90;;
11010;SDS011;5558;42.702;23.178;2022-08-04T12:56:36;3.90;;;1.90;;
11010;SDS011;5558;42.702;23.178;2022-08-04T12:59:06;2.20;;;2.00;;
11010;SDS011;5558;42.702;23.178;2022-08-04T13:01:35;1.80;;;1.70;;
11010;SDS011;5558;42.702;23.178;2022-08-04T13:04:03;2.10;;;2.00;;
11010;SDS011;5558;42.702;23.178;2022-08-04T13:06:39;2.20;;;2.00;;
11010;SDS011;5558;42.702;23.178;2022-08-04T13:09:08;2.10;;;1.90;;
11010;SDS011;5558;42.702;23.178;2022-08-04T13:11:39;2.77;;;2.10;;
11010;SDS011;5558;42.702;23.178;2022-08-04T13:14:08;2.73;;;2.00;;
11010;SDS011;5558;42.702;23.178;2022-08-04T13:16:37;2.00;;;1.80;;
11010;SDS011;5558;42.702;23.178;2022-08-04T13:19:05;2.10;;;2.00;;
11010;SDS011;5558;42.702;23.178;2022-08-04T13:21:33;3.30;;;1.93;;
11010;SDS011;5558;42.702;23.178;2022-08-04T13:24:08;2.30;;;2.10;;
11010;SDS011;5558;42.702;23.178;2022-08-04T13:26:45;2.33;;;2.13;;
11010;SDS011;5558;42.702;23.178;2022-08-04T13:29:15;2.00;;;1.80;;
11010;SDS011;5558;42.702;23.178;2022-08-04T13:31:42;2.33;;;1.90;;
11010;SDS011;5558;42.702;23.178;2022-08-04T13:34:11;2.20;;;2.10;;
11010;SDS011;5558;42.702;23.178;2022-08-04T13:36:40;2.10;;;2.00;;
11010;SDS011;5558;42.702;23.178;2022-08-04T13:39:15;2.53;;;2.20;;
11010;SDS011;5558;42.702;23.178;2022-08-04T13:41:44;2.17;;;2.03;;
11010;SDS011;5558;42.702;23.178;2022-08-04T13:44:16;2.60;;;2.17;;
11010;SDS011;5558;42.702;23.178;2022-08-04T13:46:46;2.30;;;2.10;;
11010;SDS011;5558;42.702;23.178;2022-08-04T13:49:17;2.10;;;2.00;;
11010;SDS011;5558;42.702;23.178;2022-08-04T13:51:52;2.17;;;2.07;;
11010;SDS011;5558;42.702;23.178;2022-08-04T13:54:22;2.23;;;2.13;;
11010;SDS011;5558;42.702;23.178;2022-08-04T13:56:49;2.10;;;2.00;;
11010;SDS011;5558;42.702;23.178;2022-08-04T13:59:22;2.10;;;2.00;;
11010;SDS011;5558;42.702;23.178;2022-08-04T14:01:57;2.07;;;1.97;;
11010;SDS011;5558;42.702;23.178;2022-08-04T14:04:27;2.30;;;2.10;;
11010;SDS011;5558;42.702;23.178;2022-08-04T14:06:58;2.10;;;2.00;;
11010;SDS011;5558;42.702;23.178;2022-08-04T14:09:31;3.37;;;2.20;;
11010;SDS011;5558;42.702;23.178;2022-08-04T14:12:05;2.77;;;2.00;;
11010;SDS011;5558;42.702;23.178;2022-08-04T14:14:34;2.73;;;2.20;;
11010;SDS011;5558;42.702;23.178;2022-08-04T14:17:03;2.10;;;2.00;;
11010;SDS011;5558;42.702;23.178;2022-08-04T14:19:47;2.93;;;2.47;;
11010;SDS011;5558;42.702;23.178;2022-08-04T14:22:30;2.13;;;1.90;;
11010;SDS011;5558;42.702;23.178;2022-08-04T14:25:01;3.37;;;2.00;;
11010;SDS011;5558;42.702;23.178;2022-08-04T14:27:39;2.03;;;1.93;;
11010;SDS011;5558;42.702;23.178;2022-08-04T14:30:08;2.50;;;2.30;;
11010;SDS011;5558;42.702;23.178;2022-08-04T14:32:56;2.17;;;1.97;;
11010;SDS011;5558;42.702;23.178;2022-08-04T14:35:24;2.27;;;2.17;;
11010;SDS011;5558;42.702;23.178;2022-08-04T14:37:54;2.10;;;2.00;;
11010;SDS011;5558;42.702;23.178;2022-08-04T14:40:24;2.20;;;2.10;;
11010;SDS011;5558;42.702;23.178;2022-08-04T14:42:53;3.20;;;2.20;;
11010;SDS011;5558;42.702;23.178;2022-08-04T14:45:26;2.00;;;1.90;;
11010;SDS011;5558;42.702;23.178;2022-08-04T14:47:55;2.30;;;2.10;;
11010;SDS011;5558;42.702;23.178;2022-08-04T14:50:31;2.10;;;2.00;;
11010;SDS011;5558;42.702;23.178;2022-08-04T14:53:03;2.67;;;2.20;;
11010;SDS011;5558;42.702;23.178;2022-08-04T14:55:34;2.00;;;1.90;;
11010;SDS011;5558;42.702;23.178;2022-08-04T14:58:02;2.37;;;2.17;;
11010;SDS011;5558;42.702;23.178;2022-08-04T15:00:30;2.27;;;2.17;;
11010;SDS011;5558;42.702;23.178;2022-08-04T15:02:59;2.47;;;1.90;;
11010;SDS011;5558;42.702;23.178;2022-08-04T15:05:28;2.57;;;2.37;;
11010;SDS011;5558;42.702;23.178;2022-08-04T15:07:56;2.30;;;2.20;;
11010;SDS011;5558;42.702;23.178;2022-08-04T15:10:23;2.40;;;2.20;;
11010;SDS011;5558;42.702;23.178;2022-08-04T15:12:51;3.47;;;2.30;;
11010;SDS011;5558;42.702;23.178;2022-08-04T15:15:18;3.00;;;2.10;;
11010;SDS011;5558;42.702;23.178;2022-08-04T15:17:45;2.60;;;2.40;;
11010;SDS011;5558;42.702;23.178;2022-08-04T15:20:12;2.10;;;2.00;;
11010;SDS011;5558;42.702;23.178;2022-08-04T15:22:39;2.53;;;2.20;;
11010;SDS011;5558;42.702;23.178;2022-08-04T15:25:06;3.97;;;2.20;;
11010;SDS011;5558;42.702;23.178;2022-08-04T15:27:35;2.50;;;2.30;;
11010;SDS011;5558;42.702;23.178;2022-08-04T15:30:06;2.80;;;2.30;;
11010;SDS011;5558;42.702;23.178;2022-08-04T15:32:35;3.00;;;2.20;;
11010;SDS011;5558;42.702;23.178;2022-08-04T15:35:04;3.50;;;2.30;;
11010;SDS011;5558;42.702;23.178;2022-08-04T15:37:45;2.63;;;2.20;;
11010;SDS011;5558;42.702;23.178;2022-08-04T15:40:20;3.33;;;2.40;;
11010;SDS011;5558;42.702;23.178;2022-08-04T15:42:59;3.93;;;2.20;;
11010;SDS011;5558;42.702;23.178;2022-08-04T15:45:48;3.47;;;2.37;;
11010;SDS011;5558;42.702;23.178;2022-08-04T15:50:59;2.30;;;2.10;;
11010;SDS011;5558;42.702;23.178;2022-08-04T15:53:35;5.87;;;2.37;;
11010;SDS011;5558;42.702;23.178;2022-08-04T15:56:46;2.40;;;2.20;;
11010;SDS011;5558;42.702;23.178;2022-08-04T15:59:14;2.13;;;1.93;;
11010;SDS011;5558;42.702;23.178;2022-08-04T16:01:42;2.47;;;2.03;;
11010;SDS011;5558;42.702;23.178;2022-08-04T16:04:19;2.47;;;2.27;;
11010;SDS011;5558;42.702;23.178;2022-08-04T16:06:46;2.63;;;2.43;;
11010;SDS011;5558;42.702;23.178;2022-08-04T16:09:24;2.30;;;2.10;;